Time;durP1;ratioP1;P1;durP2;ratioP2;P2;SDS_P1;SDS_P2;PMS_P1;PMS_P2;Temp;Humidity;BMP_temperature;BMP_pressure;BME280_temperature;BME280_humidity;BME280_pressure;Samples;Min_cycle;Max_cycle;Signal;HPM_P1;HPM_P2
2022/09/02 00:02:22;;;;;;;3.13;1.23;;;18.30;99.90;;;;;;4906278;29;20051;-70
2022/09/02 00:04:49;;;;;;;3.00;1.30;;;18.30;99.90;;;;;;4901980;29;20122;-73
2022/09/02 00:07:17;;;;;;;1.95;1.73;;;18.40;99.90;;;;;;4900220;29;20559;-73
2022/09/02 00:09:45;;;;;;;4.43;1.70;;;18.40;99.90;;;;;;4906960;29;20048;-75
2022/09/02 00:12:12;;;;;;;2.00;0.90;;;18.50;99.90;;;;;;4904537;29;20047;-72
2022/09/02 00:14:40;;;;;;;2.47;0.95;;;18.50;99.90;;;;;;4908860;29;20119;-72
2022/09/02 00:17:07;;;;;;;1.95;1.00;;;18.60;99.90;;;;;;4899037;29;20048;-71
2022/09/02 00:19:35;;;;;;;3.42;0.85;;;18.70;99.90;;;;;;4899537;29;20037;-72
2022/09/02 00:22:02;;;;;;;1.58;0.90;;;18.80;99.90;;;;;;4910233;29;20036;-72
2022/09/02 00:24:30;;;;;;;2.00;1.52;;;19.10;99.20;;;;;;4907498;29;20423;-72
2022/09/02 00:26:58;;;;;;;0.88;0.70;;;19.10;99.30;;;;;;4893684;29;20376;-72
2022/09/02 00:29:29;;;;;;;2.20;1.25;;;19.30;99.10;;;;;;4914846;29;20044;-73
2022/09/02 00:31:56;;;;;;;2.42;0.90;;;19.40;99.20;;;;;;4914174;29;20032;-74
2022/09/02 00:34:24;;;;;;;1.10;0.60;;;19.60;98.90;;;;;;4911957;29;20040;-71
2022/09/02 00:36:52;;;;;;;1.30;0.80;;;19.80;98.60;;;;;;4913517;29;20032;-72
2022/09/02 00:39:19;;;;;;;2.40;0.68;;;20.00;98.10;;;;;;4907091;29;20040;-72
2022/09/02 00:41:47;;;;;;;2.65;0.82;;;19.90;97.90;;;;;;4913481;29;20032;-73
2022/09/02 00:44:17;;;;;;;2.15;0.70;;;20.00;98.50;;;;;;4915885;29;20072;-74
2022/09/02 00:46:45;;;;;;;5.93;0.93;;;19.90;98.60;;;;;;4913190;29;20412;-73
2022/09/02 00:49:31;;;;;;;3.35;1.05;;;19.70;98.60;;;;;;4909585;29;20115;-74
2022/09/02 00:52:07;;;;;;;;;;;19.70;98.60;;;;;;4910102;29;20388;-73
2022/09/02 00:54:44;;;;;;;2.70;0.82;;;19.60;98.80;;;;;;4916461;29;19911;-73
2022/09/02 00:57:18;;;;;;;1.95;0.90;;;19.50;99.10;;;;;;4913150;29;20040;-73
2022/09/02 00:59:54;;;;;;;1.20;0.63;;;19.40;99.00;;;;;;4909133;29;20118;-74
2022/09/02 01:02:24;;;;;;;3.03;1.25;;;19.50;99.30;;;;;;4912851;29;20028;-73
2022/09/02 01:04:55;;;;;;;3.30;0.80;;;19.50;99.00;;;;;;4910287;29;20501;-71
2022/09/02 01:07:26;;;;;;;3.25;0.73;;;19.40;99.20;;;;;;4912515;29;20028;-72
2022/09/02 01:09:55;;;;;;;0.98;0.60;;;19.30;99.00;;;;;;4911420;29;20556;-72
2022/09/02 01:12:26;;;;;;;2.20;0.60;;;19.40;99.00;;;;;;4912424;29;20036;-71
2022/09/02 01:14:55;;;;;;;2.45;0.90;;;19.50;99.10;;;;;;4901942;29;20108;-71
2022/09/02 01:17:24;;;;;;;1.48;0.60;;;19.40;99.20;;;;;;4919211;29;20036;-73
2022/09/02 01:19:59;;;;;;;1.52;0.80;;;19.40;99.20;;;;;;4912739;29;20458;-73
2022/09/02 01:22:30;;;;;;;1.63;0.60;;;19.40;99.20;;;;;;4903912;29;20080;-72
2022/09/02 01:25:04;;;;;;;4.78;0.80;;;19.40;99.10;;;;;;4911375;29;20056;-74
2022/09/02 01:27:31;;;;;;;4.60;1.23;;;19.50;99.20;;;;;;4906674;29;20036;-77
2022/09/02 01:30:00;;;;;;;2.97;0.93;;;19.50;98.80;;;;;;4910404;29;20036;-73
2022/09/02 01:32:29;;;;;;;7.03;1.00;;;19.50;98.70;;;;;;4914246;29;20032;-72
2022/09/02 01:34:58;;;;;;;1.83;0.57;;;19.60;98.70;;;;;;4911612;29;20081;-71
2022/09/02 01:37:25;;;;;;;1.45;0.75;;;19.60;98.90;;;;;;4910769;29;20041;-72
2022/09/02 01:39:55;;;;;;;1.75;0.60;;;19.60;98.80;;;;;;4908979;29;20107;-71
2022/09/02 01:42:23;;;;;;;3.10;0.90;;;19.50;98.90;;;;;;4908600;29;20100;-73
2022/09/02 01:44:50;;;;;;;0.80;0.55;;;19.50;98.90;;;;;;4905001;29;20036;-72
2022/09/02 01:47:23;;;;;;;3.05;0.90;;;19.50;98.80;;;;;;4904343;29;20322;-72
2022/09/02 01:49:52;;;;;;;1.25;0.65;;;19.40;99.00;;;;;;4902923;29;20368;-71
2022/09/02 01:52:21;;;;;;;2.65;0.52;;;19.30;98.90;;;;;;4902017;29;20379;-72
2022/09/02 01:54:50;;;;;;;1.95;0.73;;;19.30;98.70;;;;;;4904752;29;20028;-75
2022/09/02 01:57:17;;;;;;;2.92;0.88;;;19.30;98.80;;;;;;4901699;29;20051;-76
2022/09/02 01:59:45;;;;;;;3.03;0.85;;;19.30;98.90;;;;;;4901640;29;20048;-73
2022/09/02 02:02:13;;;;;;;1.20;0.70;;;19.20;99.30;;;;;;4897800;29;20175;-73
2022/09/02 02:04:41;;;;;;;1.42;0.82;;;19.10;99.30;;;;;;4908807;29;20434;-73
2022/09/02 02:07:08;;;;;;;1.00;0.60;;;19.00;99.60;;;;;;4910208;29;20217;-72
2022/09/02 02:09:35;;;;;;;1.20;0.75;;;19.00;99.90;;;;;;4911311;29;20054;-72
2022/09/02 02:12:05;;;;;;;1.05;0.60;;;19.00;99.90;;;;;;4902991;29;20465;-71
2022/09/02 02:14:32;;;;;;;3.25;0.60;;;19.00;99.90;;;;;;4903246;29;20043;-73
2022/09/02 02:17:00;;;;;;;4.15;1.10;;;19.00;99.90;;;;;;4903422;29;20088;-70
2022/09/02 02:19:28;;;;;;;3.78;0.90;;;19.00;99.90;;;;;;4911086;29;20646;-72
2022/09/02 02:21:55;;;;;;;3.30;1.15;;;19.00;99.90;;;;;;4903602;29;20040;-71
2022/09/02 02:24:22;;;;;;;2.38;0.70;;;19.00;99.90;;;;;;4908774;29;20032;-74
2022/09/02 02:26:50;;;;;;;3.67;1.05;;;19.00;99.70;;;;;;4906785;29;20444;-74
2022/09/02 02:29:18;;;;;;;5.40;1.20;;;19.10;99.90;;;;;;4905885;29;20151;-75
2022/09/02 02:31:45;;;;;;;2.28;0.63;;;19.20;99.90;;;;;;4905116;29;20369;-74
2022/09/02 02:34:13;;;;;;;3.40;0.80;;;19.20;99.50;;;;;;4903081;29;20032;-73
2022/09/02 02:36:41;;;;;;;2.33;0.90;;;19.20;99.50;;;;;;4910340;29;20055;-75
2022/09/02 02:39:10;;;;;;;0.77;0.40;;;19.20;99.90;;;;;;4895190;29;20380;-74
2022/09/02 02:41:39;;;;;;;11.23;1.00;;;19.20;99.90;;;;;;4904593;29;20395;-75
2022/09/02 02:44:07;;;;;;;2.95;0.68;;;19.10;99.80;;;;;;4898355;29;20029;-74
2022/09/02 02:46:34;;;;;;;1.95;0.93;;;19.00;99.80;;;;;;4899590;29;20218;-74
2022/09/02 02:49:04;;;;;;;4.32;0.77;;;18.90;99.90;;;;;;4900757;29;20084;-75
2022/09/02 02:51:32;;;;;;;1.85;0.60;;;18.80;99.80;;;;;;4904065;29;20051;-73
2022/09/02 02:54:01;;;;;;;2.95;0.75;;;18.70;99.70;;;;;;4904152;29;20036;-75
2022/09/02 02:56:29;;;;;;;3.83;0.93;;;18.70;99.70;;;;;;4906737;29;20044;-74
2022/09/02 02:59:00;;;;;;;4.20;0.95;;;18.70;99.60;;;;;;4906497;29;20025;-74
2022/09/02 03:01:29;;;;;;;2.85;0.70;;;18.70;99.80;;;;;;4902949;29;20051;-75
2022/09/02 03:03:57;;;;;;;1.95;1.00;;;18.70;99.80;;;;;;4902070;29;20204;-73
2022/09/02 03:06:25;;;;;;;3.58;0.82;;;18.70;99.80;;;;;;4903163;29;20033;-74
2022/09/02 03:08:53;;;;;;;3.95;1.10;;;18.70;99.80;;;;;;4899329;29;20033;-74
2022/09/02 03:11:21;;;;;;;3.10;0.65;;;18.80;99.80;;;;;;4901796;29;20036;-73
2022/09/02 03:13:50;;;;;;;3.78;0.82;;;18.80;99.90;;;;;;4900703;29;20052;-74
2022/09/02 03:16:18;;;;;;;3.28;0.80;;;18.80;99.90;;;;;;4902539;29;20043;-71
2022/09/02 03:18:47;;;;;;;4.30;0.90;;;18.90;99.90;;;;;;4903233;29;20036;-75
2022/09/02 03:21:14;;;;;;;2.95;1.02;;;19.10;99.90;;;;;;4905643;29;20059;-73
2022/09/02 03:23:43;;;;;;;3.95;1.30;;;19.30;99.90;;;;;;4904263;29;20146;-71
2022/09/02 03:26:17;;;;;;;3.90;0.70;;;19.30;99.80;;;;;;4901613;29;20047;-73
2022/09/02 03:28:44;;;;;;;3.75;1.42;;;19.40;99.60;;;;;;4884788;29;20459;-75
2022/09/02 03:31:20;;;;;;;4.43;0.95;;;19.50;99.30;;;;;;4903238;29;20107;-75
2022/09/02 03:33:48;;;;;;;8.77;1.17;;;19.60;99.90;;;;;;4907164;29;20036;-74
2022/09/02 03:36:25;;;;;;;5.72;1.25;;;19.70;99.50;;;;;;4907253;29;20981;-75
2022/09/02 03:38:53;;;;;;;3.85;0.63;;;19.60;99.30;;;;;;4899472;29;20028;-75
2022/09/02 03:41:21;;;;;;;5.32;0.90;;;19.60;99.40;;;;;;4898027;29;20508;-74
2022/09/02 03:43:50;;;;;;;5.25;0.70;;;19.60;99.20;;;;;;4909159;29;20843;-75
2022/09/02 03:46:18;;;;;;;4.10;1.17;;;19.70;99.30;;;;;;4904924;29;20132;-75
2022/09/02 03:48:46;;;;;;;2.63;0.98;;;19.80;98.90;;;;;;4905035;29;20031;-75
2022/09/02 03:51:13;;;;;;;5.05;0.80;;;19.70;99.30;;;;;;4907305;29;20463;-75
2022/09/02 03:53:41;;;;;;;2.90;1.15;;;19.80;99.00;;;;;;4903452;29;20028;-74
2022/09/02 03:56:14;;;;;;;3.90;1.13;;;19.80;99.00;;;;;;4897872;29;21886;-74
2022/09/02 03:58:43;;;;;;;2.70;0.68;;;19.70;98.60;;;;;;4908516;29;20032;-75
2022/09/02 04:01:19;;;;;;;5.63;1.13;;;19.60;98.40;;;;;;4899041;29;20028;-74
2022/09/02 04:03:47;;;;;;;3.28;0.75;;;19.40;98.80;;;;;;4900193;29;20075;-74
2022/09/02 04:06:17;;;;;;;4.57;1.20;;;19.20;99.20;;;;;;4884784;29;20028;-76
2022/09/02 04:08:45;;;;;;;2.95;1.17;;;19.10;99.60;;;;;;4895930;29;20542;-75
2022/09/02 04:11:16;;;;;;;1.85;0.88;;;18.90;99.30;;;;;;4896572;29;20032;-75
2022/09/02 04:13:45;;;;;;;2.60;0.68;;;18.60;99.30;;;;;;4900215;29;20036;-76
2022/09/02 04:16:19;;;;;;;1.73;1.13;;;18.50;99.60;;;;;;4899466;29;20059;-75
2022/09/02 04:18:46;;;;;;;1.17;0.40;;;18.40;99.90;;;;;;4899622;29;20056;-74
2022/09/02 04:21:14;;;;;;;2.80;1.13;;;18.30;99.60;;;;;;4897088;29;20451;-74
2022/09/02 04:23:42;;;;;;;2.60;0.80;;;18.20;99.60;;;;;;4901595;29;20028;-74
2022/09/02 04:26:13;;;;;;;5.28;0.77;;;18.20;99.60;;;;;;4898047;29;20044;-74
2022/09/02 04:28:40;;;;;;;2.97;1.13;;;18.20;99.40;;;;;;4896555;29;20032;-73
2022/09/02 04:31:11;;;;;;;4.18;0.73;;;18.10;99.00;;;;;;4899112;29;20055;-74
2022/09/02 04:33:39;;;;;;;4.65;1.05;;;18.00;99.10;;;;;;4901404;29;20036;-73
2022/09/02 04:36:10;;;;;;;2.28;0.50;;;18.00;99.20;;;;;;4901032;29;20381;-73
2022/09/02 04:38:37;;;;;;;4.22;0.55;;;17.90;99.20;;;;;;4898028;29;20054;-71
2022/09/02 04:41:12;;;;;;;2.83;0.55;;;17.80;99.00;;;;;;4895598;29;20078;-74
2022/09/02 04:43:39;;;;;;;6.43;0.40;;;17.80;99.30;;;;;;4897678;29;20110;-74
2022/09/02 04:46:10;;;;;;;1.98;0.65;;;17.70;99.20;;;;;;4901160;29;20039;-74
2022/09/02 04:48:39;;;;;;;3.40;0.52;;;17.60;99.40;;;;;;4901209;29;20048;-73
2022/09/02 04:51:15;;;;;;;1.90;0.50;;;17.60;99.40;;;;;;4894102;29;20538;-74
2022/09/02 04:53:44;;;;;;;2.53;0.40;;;17.60;99.30;;;;;;4898507;29;20494;-75
2022/09/02 04:56:16;;;;;;;1.45;0.63;;;17.50;99.40;;;;;;4898782;29;20380;-74
2022/09/02 04:58:44;;;;;;;1.75;0.57;;;17.40;99.40;;;;;;4900062;29;20483;-73
2022/09/02 05:01:15;;;;;;;2.17;0.80;;;17.30;99.60;;;;;;4896852;29;20040;-73
2022/09/02 05:03:44;;;;;;;1.77;0.70;;;17.20;99.80;;;;;;4901933;29;20028;-74
2022/09/02 05:06:17;;;;;;;1.73;0.40;;;17.20;99.90;;;;;;4906486;29;20042;-72
2022/09/02 05:08:46;;;;;;;8.00;0.50;;;17.00;99.80;;;;;;4900545;29;20100;-74
2022/09/02 05:11:27;;;;;;;3.97;0.50;;;17.00;99.90;;;;;;4897646;29;20036;-75
2022/09/02 05:13:56;;;;;;;4.60;0.65;;;17.10;99.90;;;;;;4905533;29;20043;-75
2022/09/02 05:16:36;;;;;;;4.03;0.95;;;17.00;99.90;;;;;;4904770;29;20072;-75
2022/09/02 05:19:05;;;;;;;3.50;0.82;;;17.00;99.90;;;;;;4905808;29;20445;-75
2022/09/02 05:21:33;;;;;;;2.40;0.45;;;16.90;99.90;;;;;;4903952;29;20028;-75
2022/09/02 05:24:01;;;;;;;4.13;0.47;;;17.00;99.90;;;;;;4904887;29;20058;-75
2022/09/02 05:26:28;;;;;;;7.00;1.15;;;17.00;99.90;;;;;;4901908;29;20426;-75
2022/09/02 05:28:55;;;;;;;6.05;1.38;;;16.90;99.90;;;;;;4908129;29;20036;-74
2022/09/02 05:31:23;;;;;;;6.72;0.73;;;16.90;99.90;;;;;;4905543;29;20040;-75
2022/09/02 05:33:50;;;;;;;3.05;0.82;;;16.80;99.90;;;;;;4910532;29;20112;-75
2022/09/02 05:36:20;;;;;;;1.95;0.35;;;16.80;99.90;;;;;;4898464;29;20222;-74
2022/09/02 05:38:48;;;;;;;2.90;0.40;;;16.60;99.90;;;;;;4903126;29;20186;-75
2022/09/02 05:41:22;;;;;;;1.83;0.85;;;16.60;99.90;;;;;;4903437;29;20042;-77
2022/09/02 05:43:51;;;;;;;2.88;1.02;;;16.50;99.90;;;;;;4908098;29;20084;-74
2022/09/02 05:46:22;;;;;;;1.80;0.73;;;16.40;99.90;;;;;;4901723;29;20044;-75
2022/09/02 05:49:15;;;;;;;6.63;0.73;;;16.30;99.90;;;;;;4901560;29;20577;-76
2022/09/02 05:51:53;;;;;;;2.80;1.50;;;16.30;99.90;;;;;;4898297;29;20511;-77
2022/09/02 05:54:29;;;;;;;4.10;0.98;;;16.30;99.90;;;;;;4902706;29;20016;-73
2022/09/02 05:57:00;;;;;;;1.27;0.70;;;16.30;99.90;;;;;;4900623;29;20128;-73
2022/09/02 05:59:29;;;;;;;3.03;1.20;;;16.20;99.90;;;;;;4902972;29;20036;-75
2022/09/02 06:01:57;;;;;;;5.10;0.90;;;16.30;99.90;;;;;;4900842;29;20029;-74
2022/09/02 06:04:25;;;;;;;3.83;0.98;;;16.30;99.90;;;;;;4901346;29;20121;-75
2022/09/02 06:06:52;;;;;;;2.05;0.77;;;16.20;99.90;;;;;;4899806;29;20028;-74
2022/09/02 06:09:22;;;;;;;1.65;0.80;;;16.30;99.90;;;;;;4897361;29;20179;-75
2022/09/02 06:11:51;;;;;;;3.20;0.50;;;16.30;99.90;;;;;;4901891;29;20036;-75
2022/09/02 06:14:26;;;;;;;3.72;0.60;;;16.20;99.90;;;;;;4895496;29;20092;-75
2022/09/02 06:16:55;;;;;;;1.05;0.40;;;16.20;99.90;;;;;;4900218;29;20498;-75
2022/09/02 06:19:24;;;;;;;6.80;1.35;;;16.10;99.90;;;;;;4899567;29;20032;-75
2022/09/02 06:21:53;;;;;;;1.40;0.60;;;16.10;99.90;;;;;;4907979;29;20116;-74
2022/09/02 06:24:21;;;;;;;3.00;0.60;;;16.10;99.90;;;;;;4907282;29;20043;-74
2022/09/02 06:26:48;;;;;;;2.28;0.70;;;16.10;99.90;;;;;;4910144;29;20036;-74
2022/09/02 06:29:16;;;;;;;6.97;1.90;;;16.10;99.90;;;;;;4900509;29;20088;-73
2022/09/02 06:31:45;;;;;;;7.72;0.93;;;16.10;99.90;;;;;;4911502;29;20028;-73
2022/09/02 06:34:15;;;;;;;4.70;1.02;;;16.00;99.90;;;;;;4906234;29;20523;-73
2022/09/02 06:36:45;;;;;;;1.98;0.45;;;16.00;99.90;;;;;;4907855;29;20040;-72
2022/09/02 06:39:15;;;;;;;3.20;0.63;;;16.00;99.90;;;;;;4905783;29;20361;-73
2022/09/02 06:41:45;;;;;;;4.40;0.77;;;16.00;99.90;;;;;;4901152;29;20464;-74
2022/09/02 06:44:14;;;;;;;2.10;0.45;;;16.00;99.90;;;;;;4907327;29;20452;-73
2022/09/02 06:46:46;;;;;;;2.80;0.40;;;15.90;99.90;;;;;;4909287;29;20028;-74
2022/09/02 06:49:15;;;;;;;3.08;0.90;;;15.80;99.90;;;;;;4905318;29;20052;-75
2022/09/02 06:51:46;;;;;;;4.90;0.93;;;15.80;99.90;;;;;;4908986;29;20036;-74
2022/09/02 06:54:19;;;;;;;3.70;0.43;;;15.60;99.90;;;;;;4902255;29;20368;-73
2022/09/02 06:56:47;;;;;;;2.78;0.60;;;15.50;99.90;;;;;;4909016;29;20043;-74
2022/09/02 06:59:15;;;;;;;2.35;0.93;;;15.50;99.90;;;;;;4911984;29;20032;-74
2022/09/02 07:01:47;;;;;;;4.03;1.25;;;15.50;99.90;;;;;;4908770;29;20051;-75
2022/09/02 07:07:05;;;;;;;2.20;1.08;;;15.40;99.90;;;;;;4910793;29;20110;-71
2022/09/02 07:09:32;;;;;;;2.88;0.75;;;15.30;99.90;;;;;;4906985;29;20302;-74
2022/09/02 07:12:02;;;;;;;3.53;0.73;;;15.30;99.90;;;;;;4906264;29;20024;-73
2022/09/02 07:14:29;;;;;;;3.33;1.23;;;15.20;99.90;;;;;;4902163;29;20036;-73
2022/09/02 07:16:58;;;;;;;2.05;0.80;;;15.20;99.90;;;;;;4909267;29;20399;-72
2022/09/02 07:19:26;;;;;;;4.05;1.35;;;15.20;99.90;;;;;;4906881;29;20032;-73
2022/09/02 07:21:54;;;;;;;5.65;0.93;;;15.20;99.90;;;;;;4908977;29;20032;-74
2022/09/02 07:24:21;;;;;;;2.97;1.23;;;15.10;99.90;;;;;;4896905;29;20355;-74
2022/09/02 07:26:50;;;;;;;3.05;0.80;;;15.20;99.90;;;;;;4907692;29;20041;-74
2022/09/02 07:29:18;;;;;;;5.85;0.90;;;15.20;99.90;;;;;;4912780;29;20036;-75
2022/09/02 07:31:47;;;;;;;3.22;1.02;;;15.20;99.90;;;;;;4911227;29;20391;-75
2022/09/02 07:34:15;;;;;;;1.95;1.00;;;15.20;99.90;;;;;;4905372;29;20179;-74
2022/09/02 07:36:44;;;;;;;3.95;1.30;;;15.10;99.90;;;;;;4909587;29;20040;-74
2022/09/02 07:39:13;;;;;;;3.65;0.77;;;15.10;99.90;;;;;;4903327;29;20372;-73
2022/09/02 07:41:43;;;;;;;4.55;1.40;;;15.10;99.90;;;;;;4908991;29;20111;-74
2022/09/02 07:44:12;;;;;;;3.38;1.10;;;15.10;99.90;;;;;;4904873;29;20139;-72
2022/09/02 07:46:40;;;;;;;1.65;0.60;;;15.00;99.90;;;;;;4910224;29;20082;-72
2022/09/02 07:49:10;;;;;;;2.92;0.60;;;15.10;99.90;;;;;;4898069;29;20481;-75
2022/09/02 07:51:42;;;;;;;2.63;0.65;;;15.10;99.90;;;;;;4905263;29;20032;-75
2022/09/02 07:54:11;;;;;;;4.32;1.27;;;15.10;99.90;;;;;;4905140;29;20040;-73
2022/09/02 07:56:39;;;;;;;1.80;0.90;;;15.10;99.90;;;;;;4904532;29;20052;-72
2022/09/02 07:59:07;;;;;;;3.60;1.00;;;15.00;99.90;;;;;;4902805;29;20065;-74
2022/09/02 08:01:34;;;;;;;3.60;1.52;;;15.00;99.90;;;;;;4909418;29;20083;-75
2022/09/02 08:04:03;;;;;;;2.63;0.80;;;15.00;99.90;;;;;;4919511;29;20044;-74
2022/09/02 08:06:32;;;;;;;2.42;0.75;;;15.00;99.90;;;;;;4901773;29;20091;-75
2022/09/02 08:08:59;;;;;;;4.60;0.98;;;14.90;99.90;;;;;;4898208;29;20135;-75
2022/09/02 08:11:27;;;;;;;7.50;1.27;;;14.90;99.90;;;;;;4898994;29;20119;-75
2022/09/02 08:13:55;;;;;;;4.10;1.77;;;14.80;99.90;;;;;;4901305;29;20484;-76
2022/09/02 08:16:22;;;;;;;5.40;0.95;;;14.80;99.90;;;;;;4898219;29;20052;-76
2022/09/02 08:18:50;;;;;;;4.10;0.90;;;14.80;99.90;;;;;;4901846;29;20052;-76
2022/09/02 08:21:17;;;;;;;5.68;0.82;;;14.80;99.90;;;;;;4900668;29;20076;-76
2022/09/02 08:23:49;;;;;;;5.75;1.63;;;14.80;99.90;;;;;;4901033;29;20032;-76
2022/09/02 08:26:17;;;;;;;3.15;1.40;;;14.70;99.90;;;;;;4901061;29;20512;-75
2022/09/02 08:28:44;;;;;;;2.17;1.05;;;14.70;99.90;;;;;;4902410;29;20606;-74
2022/09/02 08:31:12;;;;;;;6.93;1.38;;;14.70;99.90;;;;;;4899581;29;20080;-75
2022/09/02 08:33:39;;;;;;;3.22;1.33;;;14.70;99.90;;;;;;4901010;29;20464;-75
2022/09/02 08:36:10;;;;;;;3.63;1.27;;;14.70;99.90;;;;;;4900327;29;20099;-75
2022/09/02 08:38:38;;;;;;;3.67;1.02;;;14.70;99.90;;;;;;4899950;29;20055;-75
2022/09/02 08:41:34;;;;;;;5.32;1.30;;;14.70;99.90;;;;;;4884378;29;20045;-73
2022/09/02 08:44:03;;;;;;;2.95;0.85;;;14.70;99.90;;;;;;4903159;29;20131;-75
2022/09/02 08:46:34;;;;;;;6.28;1.30;;;14.70;99.90;;;;;;4903906;29;20679;-75
2022/09/02 08:49:16;;;;;;;5.93;0.93;;;14.60;99.90;;;;;;4902972;29;20153;-75
2022/09/02 08:52:01;;;;;;;5.18;1.35;;;14.60;99.90;;;;;;4905014;29;20032;-75
2022/09/02 08:54:45;;;;;;;7.03;1.45;;;14.60;99.90;;;;;;4904365;29;20035;-75
2022/09/02 08:57:12;;;;;;;5.90;2.05;;;14.60;99.90;;;;;;4904964;29;20043;-75
2022/09/02 08:59:42;;;;;;;2.33;0.90;;;14.60;99.90;;;;;;4903644;29;20028;-77
2022/09/02 09:02:31;;;;;;;3.15;1.02;;;14.60;99.90;;;;;;4904128;29;20042;-75
2022/09/02 09:05:16;;;;;;;2.53;0.80;;;14.60;99.90;;;;;;4901928;29;20455;-77
2022/09/02 09:07:49;;;;;;;1.83;0.82;;;14.60;99.90;;;;;;4903557;29;20467;-75
2022/09/02 09:10:25;;;;;;;3.97;0.90;;;14.60;99.90;;;;;;4900085;29;20087;-75
2022/09/02 09:13:07;;;;;;;6.65;0.93;;;14.60;99.90;;;;;;4907821;29;20076;-77
2022/09/02 09:15:38;;;;;;;3.13;1.15;;;14.60;99.90;;;;;;4910276;29;20099;-76
2022/09/02 09:18:09;;;;;;;6.13;1.00;;;14.60;99.90;;;;;;4921300;29;20039;-76
2022/09/02 09:20:42;;;;;;;2.58;0.90;;;14.60;99.90;;;;;;4923462;29;20032;-76
2022/09/02 09:23:29;;;;;;;3.72;1.40;;;14.60;99.90;;;;;;4915751;29;20060;-75
2022/09/02 09:26:18;;;;;;;1.95;0.90;;;14.60;99.90;;;;;;4914112;29;20036;-75
2022/09/02 09:28:47;;;;;;;7.05;1.65;;;14.60;99.90;;;;;;4897802;29;20059;-77
2022/09/02 09:31:20;;;;;;;3.58;1.30;;;14.60;99.90;;;;;;4914075;29;20455;-77
2022/09/02 09:33:56;;;;;;;4.82;1.60;;;14.60;99.90;;;;;;4902000;29;20484;-76
2022/09/02 09:36:47;;;;;;;5.82;1.20;;;14.60;99.90;;;;;;4914370;29;20048;-76
2022/09/02 09:39:30;;;;;;;3.65;1.13;;;14.50;99.90;;;;;;4916698;29;20040;-76
2022/09/02 09:42:02;;;;;;;5.47;1.00;;;14.50;99.90;;;;;;4912166;29;20610;-76
2022/09/02 09:44:46;;;;;;;3.13;0.80;;;14.50;99.90;;;;;;4913513;29;20032;-76
2022/09/02 09:47:24;;;;;;;11.00;1.27;;;14.50;99.90;;;;;;4907386;29;20028;-77
2022/09/02 09:50:12;;;;;;;7.03;1.10;;;14.50;99.90;;;;;;4897702;29;20029;-76
2022/09/02 09:52:39;;;;;;;2.55;0.65;;;14.50;99.90;;;;;;4908164;29;20387;-76
2022/09/02 09:55:10;;;;;;;4.85;0.68;;;14.50;99.90;;;;;;4904455;29;20024;-76
2022/09/02 09:57:39;;;;;;;8.10;1.00;;;14.50;99.90;;;;;;4914437;29;20123;-76
2022/09/02 10:00:15;;;;;;;6.57;1.00;;;14.50;99.90;;;;;;4909524;29;20039;-76
2022/09/02 10:02:51;;;;;;;5.00;1.92;;;14.40;99.90;;;;;;4913647;29;20052;-77
2022/09/02 10:05:25;;;;;;;4.18;0.65;;;14.40;99.90;;;;;;4907903;29;20099;-75
2022/09/02 10:08:02;;;;;;;1.45;0.50;;;14.40;99.90;;;;;;4909504;29;20078;-75
2022/09/02 10:10:32;;;;;;;3.78;0.80;;;14.40;99.90;;;;;;4910267;29;20084;-75
2022/09/02 10:13:26;;;;;;;4.07;0.98;;;14.40;99.90;;;;;;4914767;29;20084;-76
2022/09/02 10:16:17;;;;;;;8.57;1.02;;;14.40;99.90;;;;;;4907775;29;20597;-75
2022/09/02 10:18:57;;;;;;;13.65;1.60;;;14.40;99.90;;;;;;4904320;29;20024;-77
2022/09/02 10:22:08;;;;;;;8.40;1.42;;;14.40;99.90;;;;;;4897211;29;20036;-78
2022/09/02 10:25:17;;;;;;;6.53;1.17;;;14.30;99.90;;;;;;4912195;29;20047;-77
2022/09/02 10:28:03;;;;;;;4.38;1.08;;;14.30;99.90;;;;;;4916473;29;20032;-75
2022/09/02 10:30:54;;;;;;;4.00;1.35;;;14.30;99.90;;;;;;4914056;29;20118;-77
2022/09/02 10:33:39;;;;;;;8.25;1.65;;;14.30;99.90;;;;;;4904466;29;20036;-76
2022/09/02 10:36:26;;;;;;;9.87;1.20;;;14.30;99.90;;;;;;4906193;29;20044;-76
2022/09/02 10:38:54;;;;;;;11.20;1.40;;;14.30;99.90;;;;;;4929364;29;20313;-76
2022/09/02 10:41:45;;;;;;;5.28;0.95;;;14.30;99.90;;;;;;4913134;29;20036;-76
2022/09/02 10:44:18;;;;;;;9.27;1.40;;;14.30;99.90;;;;;;4897112;29;20032;-75
2022/09/02 10:47:40;;;;;;;6.20;1.25;;;14.30;99.90;;;;;;4896465;29;20044;-75
2022/09/02 10:50:37;;;;;;;12.48;4.47;;;14.30;99.90;;;;;;4850615;29;20040;-76
2022/09/02 10:53:09;;;;;;;11.38;5.95;;;14.30;99.90;;;;;;4896100;29;20052;-76
2022/09/02 10:55:41;;;;;;;11.13;4.25;;;14.30;99.90;;;;;;4904456;29;20079;-77
2022/09/02 10:58:56;;;;;;;16.00;5.95;;;14.20;99.90;;;;;;4902756;29;20039;-76
2022/09/02 11:01:45;;;;;;;10.30;3.30;;;14.20;99.90;;;;;;4908485;29;20115;-76
2022/09/02 11:04:47;;;;;;;6.38;2.95;;;14.20;99.90;;;;;;4908835;29;20035;-76
2022/09/02 11:07:27;;;;;;;34.70;17.58;;;14.30;99.90;;;;;;4896836;29;20067;-76
2022/09/02 11:09:59;;;;;;;45.53;23.13;;;14.30;99.90;;;;;;4898959;29;20622;-76
2022/09/02 11:12:41;;;;;;;26.88;13.55;;;14.20;99.90;;;;;;4914364;29;20039;-76
2022/09/02 11:15:32;;;;;;;21.25;13.25;;;14.20;99.90;;;;;;4911194;29;20559;-76
2022/09/02 11:18:22;;;;;;;29.83;12.63;;;14.20;99.90;;;;;;4913199;29;20051;-76
2022/09/02 11:20:55;;;;;;;24.75;13.80;;;14.20;99.90;;;;;;4878392;29;20474;-77
2022/09/02 11:23:32;;;;;;;19.27;9.05;;;14.20;99.90;;;;;;4905574;29;20032;-77
2022/09/02 11:26:42;;;;;;;21.58;12.32;;;14.10;99.90;;;;;;4905798;29;20055;-75
2022/09/02 11:29:28;;;;;;;12.48;5.68;;;14.20;99.90;;;;;;4929084;29;20375;-77
2022/09/02 11:32:10;;;;;;;9.00;3.65;;;14.20;99.90;;;;;;4910789;29;20051;-76
2022/09/02 11:34:49;;;;;;;9.30;3.83;;;14.20;99.90;;;;;;4906670;29;20114;-76
2022/09/02 11:37:39;;;;;;;7.45;2.90;;;14.10;99.90;;;;;;4895679;29;20079;-76
2022/09/02 11:40:39;;;;;;;6.80;2.45;;;14.20;99.90;;;;;;4909840;29;20032;-76
2022/09/02 11:43:09;;;;;;;4.13;1.17;;;14.20;99.90;;;;;;4866437;29;20048;-76
2022/09/02 11:45:57;;;;;;;8.80;3.40;;;14.20;99.90;;;;;;4904633;29;20032;-77
2022/09/02 11:49:01;;;;;;;6.60;4.50;;;14.20;99.90;;;;;;4914604;29;20119;-77
2022/09/02 11:51:55;;;;;;;8.18;3.30;;;14.20;99.90;;;;;;4911152;29;20036;-77
2022/09/02 11:54:26;;;;;;;4.10;1.33;;;14.10;99.90;;;;;;4897073;29;20500;-76
2022/09/02 11:57:01;;;;;;;4.22;1.05;;;14.10;99.90;;;;;;4896239;29;20048;-76
2022/09/02 11:59:50;;;;;;;5.53;1.85;;;14.10;99.90;;;;;;4912757;29;20048;-77
2022/09/02 12:02:44;;;;;;;8.57;1.55;;;14.10;99.90;;;;;;4905750;29;20115;-77
2022/09/02 12:05:30;;;;;;;6.15;0.95;;;14.10;99.90;;;;;;4912813;29;20065;-77
2022/09/02 12:08:11;;;;;;;10.05;2.20;;;14.10;99.90;;;;;;4914134;29;20039;-78
2022/09/02 12:10:46;;;;;;;3.65;1.30;;;14.10;99.90;;;;;;4903146;29;20056;-78
2022/09/02 12:13:35;;;;;;;5.88;1.33;;;14.10;99.90;;;;;;4911713;29;20065;-76
2022/09/02 12:16:15;;;;;;;5.15;1.38;;;14.10;99.90;;;;;;4910354;29;20057;-77
2022/09/02 12:18:56;;;;;;;10.65;1.20;;;14.10;99.90;;;;;;4915637;29;20083;-78
2022/09/02 12:21:25;;;;;;;5.43;2.00;;;14.10;99.90;;;;;;4912156;29;20400;-77
2022/09/02 12:23:52;;;;;;;7.97;1.58;;;14.10;99.90;;;;;;4894730;29;20672;-77
2022/09/02 12:26:24;;;;;;;12.18;1.45;;;14.00;99.90;;;;;;4896686;29;21386;-76
2022/09/02 12:28:53;;;;;;;6.18;1.27;;;14.10;99.90;;;;;;4907800;29;20123;-76
2022/09/02 12:31:44;;;;;;;7.28;1.10;;;14.10;99.90;;;;;;4899766;29;20037;-77
2022/09/02 12:34:23;;;;;;;5.47;1.00;;;14.10;99.90;;;;;;4896962;29;20036;-77
2022/09/02 12:36:55;;;;;;;6.20;1.63;;;14.10;99.90;;;;;;4899496;29;21149;-77
2022/09/02 12:39:26;;;;;;;3.30;1.25;;;14.00;99.90;;;;;;4902772;29;20035;-77
2022/09/02 12:42:26;;;;;;;7.68;2.17;;;14.10;99.90;;;;;;4905806;29;20028;-77
2022/09/02 12:45:06;;;;;;;7.45;1.25;;;14.10;99.90;;;;;;4909217;29;20020;-77
2022/09/02 12:47:51;;;;;;;5.30;2.13;;;14.10;99.90;;;;;;4909851;29;20028;-77
2022/09/02 12:50:32;;;;;;;5.20;1.25;;;14.10;99.90;;;;;;4905717;29;20040;-77
2022/09/02 12:53:46;;;;;;;9.38;1.50;;;14.00;99.90;;;;;;4901148;29;20024;-77
2022/09/02 12:56:21;;;;;;;4.28;1.23;;;14.00;99.90;;;;;;4906272;29;20460;-76
2022/09/02 12:58:52;;;;;;;5.50;1.08;;;14.00;99.90;;;;;;4906675;29;20072;-76
2022/09/02 13:01:56;;;;;;;3.58;0.82;;;14.00;99.90;;;;;;4906765;29;20064;-75
2022/09/02 13:05:00;;;;;;;4.95;1.55;;;14.00;99.90;;;;;;4908023;29;20065;-75
2022/09/02 13:07:45;;;;;;;6.97;1.50;;;13.90;99.90;;;;;;4905615;29;20035;-76
2022/09/02 13:11:00;;;;;;;3.30;0.88;;;13.70;99.90;;;;;;4900240;29;20051;-77
2022/09/02 13:13:59;;;;;;;13.20;1.27;;;13.60;99.90;;;;;;4823574;29;20046;-76
2022/09/02 13:17:01;;;;;;;9.88;2.10;;;13.60;99.90;;;;;;4908077;29;20063;-76
2022/09/02 13:20:07;;;;;;;11.65;1.83;;;13.50;99.90;;;;;;4858134;29;20052;-76
2022/09/02 13:23:03;;;;;;;2.95;0.70;;;13.40;99.90;;;;;;4909580;29;20036;-77
2022/09/02 13:26:04;;;;;;;6.87;1.13;;;13.40;99.90;;;;;;4875214;29;20029;-76